sensor_id;sensor_type;location;lat;lon;timestamp;pressure;altitude;pressure_sealevel;temperature;humidity
37170;BME280;23062;13.952;100.608;2024-03-25T00:04:25;1011.44;;;31.60;75.65
37170;BME280;23062;13.952;100.608;2024-03-25T00:09:10;1011.52;;;31.60;75.70
37170;BME280;23062;13.952;100.608;2024-03-25T00:13:56;1011.60;;;31.64;75.64
37170;BME280;23062;13.952;100.608;2024-03-25T00:18:42;1011.64;;;31.60;75.91
37170;BME280;23062;13.952;100.608;2024-03-25T00:23:24;1011.72;;;31.67;75.67
37170;BME280;23062;13.952;100.608;2024-03-25T00:28:01;1011.78;;;31.65;75.85
37170;BME280;23062;13.952;100.608;2024-03-25T00:32:47;1011.84;;;31.64;76.41
37170;BME280;23062;13.952;100.608;2024-03-25T00:37:29;1011.86;;;31.81;76.09
37170;BME280;23062;13.952;100.608;2024-03-25T00:42:07;1011.88;;;31.86;76.11
37170;BME280;23062;13.952;100.608;2024-03-25T00:46:46;1011.95;;;31.53;77.58
37170;BME280;23062;13.952;100.608;2024-03-25T00:51:28;1012.05;;;31.82;76.37
37170;BME280;23062;13.952;100.608;2024-03-25T00:56:06;1012.11;;;31.86;75.94
37170;BME280;23062;13.952;100.608;2024-03-25T01:00:50;1012.12;;;31.84;76.90
37170;BME280;23062;13.952;100.608;2024-03-25T01:05:35;1012.16;;;32.08;75.51
37170;BME280;23062;13.952;100.608;2024-03-25T01:10:19;1012.25;;;32.13;75.11
37170;BME280;23062;13.952;100.608;2024-03-25T01:15:05;1012.33;;;32.18;74.49
37170;BME280;23062;13.952;100.608;2024-03-25T01:19:45;1012.32;;;32.04;74.48
37170;BME280;23062;13.952;100.608;2024-03-25T01:24:29;1012.36;;;32.14;73.82
37170;BME280;23062;13.952;100.608;2024-03-25T01:29:14;1012.37;;;32.20;73.23
37170;BME280;23062;13.952;100.608;2024-03-25T01:33:52;1012.47;;;32.26;72.68
37170;BME280;23062;13.952;100.608;2024-03-25T01:38:34;1012.52;;;32.30;72.32
37170;BME280;23062;13.952;100.608;2024-03-25T01:43:18;1012.48;;;32.36;71.99
37170;BME280;23062;13.952;100.608;2024-03-25T01:47:56;1012.56;;;32.36;71.57
37170;BME280;23062;13.952;100.608;2024-03-25T01:52:42;1012.55;;;32.39;71.13
37170;BME280;23062;13.952;100.608;2024-03-25T01:57:19;1012.60;;;32.45;70.70
37170;BME280;23062;13.952;100.608;2024-03-25T02:02:06;1012.68;;;32.52;69.59
37170;BME280;23062;13.952;100.608;2024-03-25T02:06:51;1012.70;;;32.57;69.82
37170;BME280;23062;13.952;100.608;2024-03-25T02:11:37;1012.78;;;32.63;69.61
37170;BME280;23062;13.952;100.608;2024-03-25T02:16:19;1012.87;;;32.61;69.31
37170;BME280;23062;13.952;100.608;2024-03-25T02:21:04;1012.88;;;32.63;68.82
37170;BME280;23062;13.952;100.608;2024-03-25T02:25:42;1012.87;;;32.59;68.68
37170;BME280;23062;13.952;100.608;2024-03-25T02:30:29;1012.87;;;32.69;68.44
37170;BME280;23062;13.952;100.608;2024-03-25T02:35:13;1012.84;;;32.74;67.93
37170;BME280;23062;13.952;100.608;2024-03-25T02:39:58;1012.81;;;32.75;67.87
37170;BME280;23062;13.952;100.608;2024-03-25T02:44:44;1012.76;;;32.80;67.72
37170;BME280;23062;13.952;100.608;2024-03-25T02:49:29;1012.68;;;32.83;67.37
37170;BME280;23062;13.952;100.608;2024-03-25T02:54:11;1012.69;;;32.87;66.90
37170;BME280;23062;13.952;100.608;2024-03-25T02:58:50;1012.76;;;32.88;67.09
37170;BME280;23062;13.952;100.608;2024-03-25T03:03:36;1012.74;;;32.91;67.25
37170;BME280;23062;13.952;100.608;2024-03-25T03:08:19;1012.68;;;32.94;66.82
37170;BME280;23062;13.952;100.608;2024-03-25T03:13:02;1012.65;;;32.98;65.91
37170;BME280;23062;13.952;100.608;2024-03-25T03:17:40;1012.58;;;33.00;65.06
37170;BME280;23062;13.952;100.608;2024-03-25T03:22:23;1012.58;;;33.08;64.19
37170;BME280;23062;13.952;100.608;2024-03-25T03:27:03;1012.60;;;33.18;64.23
37170;BME280;23062;13.952;100.608;2024-03-25T03:31:45;1012.51;;;33.12;64.53
37170;BME280;23062;13.952;100.608;2024-03-25T03:36:30;1012.53;;;33.16;64.78
37170;BME280;23062;13.952;100.608;2024-03-25T03:41:12;1012.51;;;33.22;63.89
37170;BME280;23062;13.952;100.608;2024-03-25T03:45:58;1012.52;;;33.19;64.17
37170;BME280;23062;13.952;100.608;2024-03-25T03:50:39;1012.43;;;33.19;63.45
37170;BME280;23062;13.952;100.608;2024-03-25T03:55:25;1012.42;;;33.28;62.95
37170;BME280;23062;13.952;100.608;2024-03-25T04:00:08;1012.39;;;33.27;62.67
37170;BME280;23062;13.952;100.608;2024-03-25T04:04:51;1012.29;;;33.31;62.33
37170;BME280;23062;13.952;100.608;2024-03-25T04:09:37;1012.27;;;33.32;62.41
37170;BME280;23062;13.952;100.608;2024-03-25T04:14:22;1012.17;;;33.39;61.60
37170;BME280;23062;13.952;100.608;2024-03-25T04:19:06;1012.02;;;33.44;61.05
37170;BME280;23062;13.952;100.608;2024-03-25T04:23:44;1012.02;;;33.38;61.37
37170;BME280;23062;13.952;100.608;2024-03-25T04:28:21;1011.94;;;33.51;59.24
37170;BME280;23062;13.952;100.608;2024-03-25T04:33:05;1011.78;;;33.40;60.36
37170;BME280;23062;13.952;100.608;2024-03-25T04:37:48;1011.83;;;33.61;59.37
37170;BME280;23062;13.952;100.608;2024-03-25T04:42:28;1011.80;;;33.55;59.83
37170;BME280;23062;13.952;100.608;2024-03-25T04:47:13;1011.74;;;33.48;60.54
37170;BME280;23062;13.952;100.608;2024-03-25T04:51:59;1011.67;;;33.59;60.24
37170;BME280;23062;13.952;100.608;2024-03-25T04:56:44;1011.59;;;33.56;60.35
37170;BME280;23062;13.952;100.608;2024-03-25T05:01:29;1011.54;;;33.53;60.70
37170;BME280;23062;13.952;100.608;2024-03-25T05:06:12;1011.39;;;33.57;60.36
37170;BME280;23062;13.952;100.608;2024-03-25T05:10:49;1011.32;;;33.52;60.70
37170;BME280;23062;13.952;100.608;2024-03-25T05:15:26;1011.14;;;33.57;60.03
37170;BME280;23062;13.952;100.608;2024-03-25T05:20:10;1011.06;;;33.54;60.30
37170;BME280;23062;13.952;100.608;2024-03-25T05:24:55;1010.99;;;33.57;60.43
37170;BME280;23062;13.952;100.608;2024-03-25T05:29:39;1010.93;;;33.69;60.38
37170;BME280;23062;13.952;100.608;2024-03-25T05:34:26;1010.83;;;33.76;59.35
37170;BME280;23062;13.952;100.608;2024-03-25T05:39:11;1010.76;;;33.80;59.09
37170;BME280;23062;13.952;100.608;2024-03-25T05:43:56;1010.70;;;33.83;59.19
37170;BME280;23062;13.952;100.608;2024-03-25T05:48:41;1010.57;;;33.83;59.23
37170;BME280;23062;13.952;100.608;2024-03-25T05:53:27;1010.46;;;33.83;59.59
37170;BME280;23062;13.952;100.608;2024-03-25T05:58:12;1010.47;;;33.89;59.08
37170;BME280;23062;13.952;100.608;2024-03-25T06:02:57;1010.36;;;33.86;59.33
37170;BME280;23062;13.952;100.608;2024-03-25T06:07:34;1010.26;;;33.85;59.06
37170;BME280;23062;13.952;100.608;2024-03-25T06:12:20;1010.16;;;33.90;59.37
37170;BME280;23062;13.952;100.608;2024-03-25T06:17:03;1010.00;;;33.91;58.87
37170;BME280;23062;13.952;100.608;2024-03-25T06:21:47;1009.86;;;34.00;58.43
37170;BME280;23062;13.952;100.608;2024-03-25T06:26:25;1009.75;;;33.97;58.30
37170;BME280;23062;13.952;100.608;2024-03-25T06:31:09;1009.73;;;33.99;58.36
37170;BME280;23062;13.952;100.608;2024-03-25T06:36:12;1009.62;;;34.06;57.29
37170;BME280;23062;13.952;100.608;2024-03-25T06:40:57;1009.45;;;33.98;57.94
37170;BME280;23062;13.952;100.608;2024-03-25T06:45:43;1009.34;;;34.04;57.16
37170;BME280;23062;13.952;100.608;2024-03-25T06:50:24;1009.36;;;34.05;57.82
37170;BME280;23062;13.952;100.608;2024-03-25T06:55:01;1009.25;;;34.11;57.37
37170;BME280;23062;13.952;100.608;2024-03-25T06:59:46;1009.19;;;34.06;57.31
37170;BME280;23062;13.952;100.608;2024-03-25T07:04:31;1009.10;;;34.11;56.60
37170;BME280;23062;13.952;100.608;2024-03-25T07:09:17;1008.96;;;34.20;56.54
37170;BME280;23062;13.952;100.608;2024-03-25T07:14:02;1008.81;;;34.18;57.00
37170;BME280;23062;13.952;100.608;2024-03-25T07:18:45;1008.76;;;34.18;56.55
37170;BME280;23062;13.952;100.608;2024-03-25T07:23:24;1008.60;;;34.19;56.43
37170;BME280;23062;13.952;100.608;2024-03-25T07:28:09;1008.47;;;34.12;56.65
37170;BME280;23062;13.952;100.608;2024-03-25T07:32:51;1008.40;;;34.05;57.37
37170;BME280;23062;13.952;100.608;2024-03-25T07:37:35;1008.38;;;34.11;56.98
37170;BME280;23062;13.952;100.608;2024-03-25T07:42:13;1008.30;;;34.10;56.56
37170;BME280;23062;13.952;100.608;2024-03-25T07:46:58;1008.20;;;34.04;56.76
37170;BME280;23062;13.952;100.608;2024-03-25T07:51:45;1008.07;;;34.13;55.51
37170;BME280;23062;13.952;100.608;2024-03-25T07:56:29;1008.09;;;34.08;55.94
37170;BME280;23062;13.952;100.608;2024-03-25T08:01:11;1007.98;;;34.02;56.21
37170;BME280;23062;13.952;100.608;2024-03-25T08:05:48;1007.95;;;34.06;56.52
37170;BME280;23062;13.952;100.608;2024-03-25T08:10:32;1007.90;;;34.09;56.50
37170;BME280;23062;13.952;100.608;2024-03-25T08:15:16;1007.80;;;34.30;55.58
37170;BME280;23062;13.952;100.608;2024-03-25T08:19:53;1007.67;;;34.18;55.89
37170;BME280;23062;13.952;100.608;2024-03-25T08:24:38;1007.72;;;34.33;55.32
37170;BME280;23062;13.952;100.608;2024-03-25T08:29:21;1007.62;;;34.26;55.31
37170;BME280;23062;13.952;100.608;2024-03-25T08:34:06;1007.62;;;34.28;55.56
37170;BME280;23062;13.952;100.608;2024-03-25T08:38:52;1007.52;;;34.30;55.41
37170;BME280;23062;13.952;100.608;2024-03-25T08:43:34;1007.48;;;34.32;55.21
37170;BME280;23062;13.952;100.608;2024-03-25T08:48:19;1007.49;;;34.42;54.30
37170;BME280;23062;13.952;100.608;2024-03-25T08:53:04;1007.43;;;34.39;54.40
37170;BME280;23062;13.952;100.608;2024-03-25T08:57:48;1007.46;;;34.49;53.77
37170;BME280;23062;13.952;100.608;2024-03-25T09:02:34;1007.42;;;34.36;54.47
37170;BME280;23062;13.952;100.608;2024-03-25T09:07:19;1007.46;;;34.36;54.51
37170;BME280;23062;13.952;100.608;2024-03-25T09:12:05;1007.45;;;34.45;54.48
37170;BME280;23062;13.952;100.608;2024-03-25T09:16:50;1007.45;;;34.35;54.61
37170;BME280;23062;13.952;100.608;2024-03-25T09:21:35;1007.50;;;34.31;54.27
37170;BME280;23062;13.952;100.608;2024-03-25T09:26:18;1007.61;;;34.45;53.80
37170;BME280;23062;13.952;100.608;2024-03-25T09:31:02;1007.56;;;34.41;54.07
37170;BME280;23062;13.952;100.608;2024-03-25T09:35:41;1007.56;;;34.36;54.42
37170;BME280;23062;13.952;100.608;2024-03-25T09:40:25;1007.53;;;34.43;54.28
37170;BME280;23062;13.952;100.608;2024-03-25T09:45:11;1007.57;;;34.39;54.50
37170;BME280;23062;13.952;100.608;2024-03-25T09:49:56;1007.66;;;34.38;54.61
37170;BME280;23062;13.952;100.608;2024-03-25T09:54:42;1007.68;;;34.44;54.20
37170;BME280;23062;13.952;100.608;2024-03-25T09:59:26;1007.76;;;34.34;54.77
37170;BME280;23062;13.952;100.608;2024-03-25T10:04:04;1007.79;;;34.34;54.33
37170;BME280;23062;13.952;100.608;2024-03-25T10:08:47;1007.95;;;34.29;54.21
37170;BME280;23062;13.952;100.608;2024-03-25T10:13:27;1007.89;;;34.26;54.01
37170;BME280;23062;13.952;100.608;2024-03-25T10:18:12;1008.00;;;34.25;53.32
37170;BME280;23062;13.952;100.608;2024-03-25T10:22:55;1008.04;;;34.23;53.08
37170;BME280;23062;13.952;100.608;2024-03-25T10:27:39;1008.07;;;34.18;53.19
37170;BME280;23062;13.952;100.608;2024-03-25T10:32:24;1008.08;;;34.17;53.39
37170;BME280;23062;13.952;100.608;2024-03-25T10:37:11;1008.03;;;34.13;53.67
37170;BME280;23062;13.952;100.608;2024-03-25T10:42:00;1007.99;;;34.13;53.80
37170;BME280;23062;13.952;100.608;2024-03-25T10:46:58;1008.02;;;34.09;53.49
37170;BME280;23062;13.952;100.608;2024-03-25T10:51:36;1008.06;;;34.07;54.21
37170;BME280;23062;13.952;100.608;2024-03-25T10:56:24;1008.05;;;33.96;55.19
37170;BME280;23062;13.952;100.608;2024-03-25T11:01:07;1008.04;;;33.90;55.11
37170;BME280;23062;13.952;100.608;2024-03-25T11:05:49;1008.01;;;33.96;54.49
37170;BME280;23062;13.952;100.608;2024-03-25T11:10:35;1007.99;;;33.89;55.28
37170;BME280;23062;13.952;100.608;2024-03-25T11:15:19;1008.02;;;33.87;55.41
37170;BME280;23062;13.952;100.608;2024-03-25T11:20:17;1008.09;;;33.85;54.97
37170;BME280;23062;13.952;100.608;2024-03-25T11:24:43;1008.20;;;33.70;55.89
37170;BME280;23062;13.952;100.608;2024-03-25T11:29:26;1008.22;;;33.71;56.14
37170;BME280;23062;13.952;100.608;2024-03-25T11:34:08;1008.39;;;33.69;56.49
37170;BME280;23062;13.952;100.608;2024-03-25T11:39:02;1008.46;;;33.69;56.91
37170;BME280;23062;13.952;100.608;2024-03-25T11:43:45;1008.57;;;33.71;57.09
37170;BME280;23062;13.952;100.608;2024-03-25T11:48:30;1008.74;;;33.71;57.58
37170;BME280;23062;13.952;100.608;2024-03-25T11:53:07;1008.86;;;33.67;57.83
37170;BME280;23062;13.952;100.608;2024-03-25T11:57:57;1008.99;;;33.61;58.31
37170;BME280;23062;13.952;100.608;2024-03-25T12:02:39;1009.14;;;33.58;58.23
37170;BME280;23062;13.952;100.608;2024-03-25T12:07:23;1009.21;;;33.61;58.00
37170;BME280;23062;13.952;100.608;2024-03-25T12:12:02;1009.30;;;33.56;58.03
37170;BME280;23062;13.952;100.608;2024-03-25T12:16:39;1009.35;;;33.52;58.65
37170;BME280;23062;13.952;100.608;2024-03-25T12:21:22;1009.27;;;33.51;58.73
37170;BME280;23062;13.952;100.608;2024-03-25T12:26:05;1009.25;;;33.55;59.29
37170;BME280;23062;13.952;100.608;2024-03-25T12:30:52;1009.35;;;33.52;59.65
37170;BME280;23062;13.952;100.608;2024-03-25T12:35:37;1009.33;;;33.56;59.97
37170;BME280;23062;13.952;100.608;2024-03-25T12:40:28;1009.30;;;33.57;60.27
37170;BME280;23062;13.952;100.608;2024-03-25T12:45:06;1009.20;;;33.59;59.90
37170;BME280;23062;13.952;100.608;2024-03-25T12:49:50;1009.33;;;33.68;59.74
37170;BME280;23062;13.952;100.608;2024-03-25T12:54:35;1009.34;;;33.67;60.12
37170;BME280;23062;13.952;100.608;2024-03-25T12:59:19;1009.38;;;33.67;60.65
37170;BME280;23062;13.952;100.608;2024-03-25T13:04:04;1009.50;;;33.63;60.77
37170;BME280;23062;13.952;100.608;2024-03-25T13:08:50;1009.58;;;33.57;60.97
37170;BME280;23062;13.952;100.608;2024-03-25T13:13:31;1009.72;;;33.54;60.88
37170;BME280;23062;13.952;100.608;2024-03-25T13:18:08;1009.82;;;33.56;60.51
37170;BME280;23062;13.952;100.608;2024-03-25T13:22:53;1009.92;;;33.53;60.60
37170;BME280;23062;13.952;100.608;2024-03-25T13:27:39;1010.04;;;33.55;60.67
37170;BME280;23062;13.952;100.608;2024-03-25T13:32:25;1010.10;;;33.59;60.37
37170;BME280;23062;13.952;100.608;2024-03-25T13:37:03;1010.16;;;33.57;59.95
37170;BME280;23062;13.952;100.608;2024-03-25T13:41:48;1010.23;;;33.58;59.66
37170;BME280;23062;13.952;100.608;2024-03-25T13:46:29;1010.35;;;33.58;59.36
37170;BME280;23062;13.952;100.608;2024-03-25T13:51:15;1010.47;;;33.53;59.56
37170;BME280;23062;13.952;100.608;2024-03-25T13:56:00;1010.45;;;33.54;59.64
37170;BME280;23062;13.952;100.608;2024-03-25T14:00:44;1010.53;;;33.53;59.85
37170;BME280;23062;13.952;100.608;2024-03-25T14:05:24;1010.71;;;33.54;60.13
37170;BME280;23062;13.952;100.608;2024-03-25T14:10:02;1010.78;;;33.55;60.31
37170;BME280;23062;13.952;100.608;2024-03-25T14:14:47;1010.81;;;33.69;60.18
37170;BME280;23062;13.952;100.608;2024-03-25T14:19:31;1010.70;;;33.71;60.58
37170;BME280;23062;13.952;100.608;2024-03-25T14:24:14;1010.75;;;33.71;60.60
37170;BME280;23062;13.952;100.608;2024-03-25T14:28:59;1010.80;;;33.70;60.79
37170;BME280;23062;13.952;100.608;2024-03-25T14:33:47;1010.85;;;33.70;60.89
37170;BME280;23062;13.952;100.608;2024-03-25T14:38:31;1010.86;;;33.65;61.12
37170;BME280;23062;13.952;100.608;2024-03-25T14:43:18;1010.87;;;33.67;61.14
37170;BME280;23062;13.952;100.608;2024-03-25T14:47:59;1010.99;;;33.67;61.29
37170;BME280;23062;13.952;100.608;2024-03-25T14:52:46;1010.98;;;33.67;61.32
37170;BME280;23062;13.952;100.608;2024-03-25T14:57:27;1011.03;;;33.62;61.78
37170;BME280;23062;13.952;100.608;2024-03-25T15:02:10;1010.96;;;33.65;61.67
37170;BME280;23062;13.952;100.608;2024-03-25T15:07:00;1011.15;;;33.63;61.84
37170;BME280;23062;13.952;100.608;2024-03-25T15:11:44;1011.23;;;33.64;61.88
37170;BME280;23062;13.952;100.608;2024-03-25T15:16:24;1011.17;;;33.61;62.13
37170;BME280;23062;13.952;100.608;2024-03-25T15:21:09;1011.26;;;33.61;62.17
37170;BME280;23062;13.952;100.608;2024-03-25T15:25:53;1011.20;;;33.61;62.38
37170;BME280;23062;13.952;100.608;2024-03-25T15:30:35;1011.09;;;33.60;62.94
37170;BME280;23062;13.952;100.608;2024-03-25T15:35:22;1011.06;;;33.59;63.31
37170;BME280;23062;13.952;100.608;2024-03-25T15:40:10;1011.01;;;33.58;63.26
37170;BME280;23062;13.952;100.608;2024-03-25T15:44:56;1011.06;;;33.58;63.63
37170;BME280;23062;13.952;100.608;2024-03-25T15:49:47;1011.07;;;33.57;64.03
37170;BME280;23062;13.952;100.608;2024-03-25T15:54:26;1011.06;;;33.57;64.18
37170;BME280;23062;13.952;100.608;2024-03-25T15:59:04;1011.02;;;33.53;64.53
37170;BME280;23062;13.952;100.608;2024-03-25T16:03:47;1011.11;;;33.54;64.77
37170;BME280;23062;13.952;100.608;2024-03-25T16:08:32;1011.17;;;33.52;65.09
37170;BME280;23062;13.952;100.608;2024-03-25T16:13:13;1011.22;;;33.51;65.17
37170;BME280;23062;13.952;100.608;2024-03-25T16:17:56;1011.24;;;33.55;65.43
37170;BME280;23062;13.952;100.608;2024-03-25T16:22:40;1011.18;;;33.53;65.54
37170;BME280;23062;13.952;100.608;2024-03-25T16:27:28;1011.29;;;33.55;65.79
37170;BME280;23062;13.952;100.608;2024-03-25T16:32:12;1011.31;;;33.50;66.34
37170;BME280;23062;13.952;100.608;2024-03-25T16:36:55;1011.26;;;33.48;66.60
37170;BME280;23062;13.952;100.608;2024-03-25T16:41:41;1011.22;;;33.46;66.83
37170;BME280;23062;13.952;100.608;2024-03-25T16:46:19;1011.18;;;33.52;66.75
37170;BME280;23062;13.952;100.608;2024-03-25T16:50:56;1011.32;;;33.51;67.01
37170;BME280;23062;13.952;100.608;2024-03-25T16:55:41;1011.36;;;33.47;67.08
37170;BME280;23062;13.952;100.608;2024-03-25T17:00:27;1011.21;;;33.49;66.82
37170;BME280;23062;13.952;100.608;2024-03-25T17:05:11;1011.08;;;33.47;66.88
37170;BME280;23062;13.952;100.608;2024-03-25T17:09:51;1011.10;;;33.51;66.55
37170;BME280;23062;13.952;100.608;2024-03-25T17:14:27;1011.16;;;33.46;66.92
37170;BME280;23062;13.952;100.608;2024-03-25T17:19:08;1011.15;;;33.47;66.96
37170;BME280;23062;13.952;100.608;2024-03-25T17:23:45;1011.02;;;33.48;66.79
37170;BME280;23062;13.952;100.608;2024-03-25T17:28:32;1011.02;;;33.48;66.58
37170;BME280;23062;13.952;100.608;2024-03-25T17:33:18;1010.96;;;33.46;66.61
37170;BME280;23062;13.952;100.608;2024-03-25T17:38:03;1010.90;;;33.44;66.47
37170;BME280;23062;13.952;100.608;2024-03-25T17:42:48;1010.83;;;33.43;66.39
37170;BME280;23062;13.952;100.608;2024-03-25T17:47:28;1010.70;;;33.41;66.19
37170;BME280;23062;13.952;100.608;2024-03-25T17:52:13;1010.72;;;33.40;66.51
37170;BME280;23062;13.952;100.608;2024-03-25T17:56:57;1010.68;;;33.38;66.59
37170;BME280;23062;13.952;100.608;2024-03-25T18:01:34;1010.69;;;33.37;66.63
37170;BME280;23062;13.952;100.608;2024-03-25T18:06:20;1010.63;;;33.40;66.49
37170;BME280;23062;13.952;100.608;2024-03-25T18:11:05;1010.61;;;33.43;66.44
37170;BME280;23062;13.952;100.608;2024-03-25T18:15:49;1010.56;;;33.38;66.61
37170;BME280;23062;13.952;100.608;2024-03-25T18:20:36;1010.57;;;33.38;66.53
37170;BME280;23062;13.952;100.608;2024-03-25T18:25:19;1010.51;;;33.38;66.64
37170;BME280;23062;13.952;100.608;2024-03-25T18:29:58;1010.52;;;33.37;66.71
37170;BME280;23062;13.952;100.608;2024-03-25T18:34:40;1010.58;;;33.37;66.77
37170;BME280;23062;13.952;100.608;2024-03-25T18:39:25;1010.55;;;33.34;66.79
37170;BME280;23062;13.952;100.608;2024-03-25T18:44:04;1010.55;;;33.33;66.97
37170;BME280;23062;13.952;100.608;2024-03-25T18:48:48;1010.41;;;33.34;67.03
37170;BME280;23062;13.952;100.608;2024-03-25T18:53:35;1010.40;;;33.33;66.99
37170;BME280;23062;13.952;100.608;2024-03-25T18:58:20;1010.35;;;33.30;67.35
37170;BME280;23062;13.952;100.608;2024-03-25T19:03:05;1010.28;;;33.32;67.02
37170;BME280;23062;13.952;100.608;2024-03-25T19:07:49;1010.21;;;33.29;67.25
37170;BME280;23062;13.952;100.608;2024-03-25T19:12:32;1010.17;;;33.29;67.17
37170;BME280;23062;13.952;100.608;2024-03-25T19:17:15;1010.17;;;33.30;67.27
37170;BME280;23062;13.952;100.608;2024-03-25T19:22:01;1010.06;;;33.27;67.51
37170;BME280;23062;13.952;100.608;2024-03-25T19:26:38;1010.00;;;33.30;67.58
37170;BME280;23062;13.952;100.608;2024-03-25T19:31:23;1009.97;;;33.23;67.97
37170;BME280;23062;13.952;100.608;2024-03-25T19:36:01;1009.92;;;33.27;67.96
37170;BME280;23062;13.952;100.608;2024-03-25T19:40:38;1009.84;;;33.27;67.95
37170;BME280;23062;13.952;100.608;2024-03-25T19:45:18;1009.76;;;33.22;68.12
37170;BME280;23062;13.952;100.608;2024-03-25T19:49:56;1009.86;;;33.18;68.08
37170;BME280;23062;13.952;100.608;2024-03-25T19:54:38;1009.96;;;33.19;68.37
37170;BME280;23062;13.952;100.608;2024-03-25T19:59:24;1010.06;;;33.24;68.17
37170;BME280;23062;13.952;100.608;2024-03-25T20:04:00;1010.12;;;33.25;68.11
37170;BME280;23062;13.952;100.608;2024-03-25T20:08:40;1010.08;;;33.24;68.22
37170;BME280;23062;13.952;100.608;2024-03-25T20:13:25;1010.18;;;33.18;68.30
37170;BME280;23062;13.952;100.608;2024-03-25T20:18:11;1010.18;;;33.16;68.29
37170;BME280;23062;13.952;100.608;2024-03-25T20:22:56;1010.24;;;33.20;68.07
37170;BME280;23062;13.952;100.608;2024-03-25T20:27:42;1010.20;;;33.20;67.99
37170;BME280;23062;13.952;100.608;2024-03-25T20:32:28;1010.23;;;33.20;68.14
37170;BME280;23062;13.952;100.608;2024-03-25T20:37:14;1010.32;;;33.17;68.16
37170;BME280;23062;13.952;100.608;2024-03-25T20:42:05;1010.42;;;33.14;68.04
37170;BME280;23062;13.952;100.608;2024-03-25T20:46:43;1010.49;;;33.17;67.43
37170;BME280;23062;13.952;100.608;2024-03-25T20:51:29;1010.62;;;33.17;67.18
37170;BME280;23062;13.952;100.608;2024-03-25T20:56:07;1010.64;;;33.18;67.05
37170;BME280;23062;13.952;100.608;2024-03-25T21:00:47;1010.66;;;33.18;67.05
37170;BME280;23062;13.952;100.608;2024-03-25T21:05:29;1010.71;;;33.17;66.84
37170;BME280;23062;13.952;100.608;2024-03-25T21:10:06;1010.67;;;33.12;67.00
37170;BME280;23062;13.952;100.608;2024-03-25T21:14:51;1010.63;;;33.14;66.82
37170;BME280;23062;13.952;100.608;2024-03-25T21:24:30;1010.60;;;33.12;67.00
37170;BME280;23062;13.952;100.608;2024-03-25T21:29:08;1010.63;;;33.14;66.86
37170;BME280;23062;13.952;100.608;2024-03-25T21:33:55;1010.73;;;33.02;67.45
37170;BME280;23062;13.952;100.608;2024-03-25T21:38:38;1010.74;;;32.85;68.17
37170;BME280;23062;13.952;100.608;2024-03-25T21:43:25;1010.77;;;32.84;68.35
37170;BME280;23062;13.952;100.608;2024-03-25T21:48:10;1010.87;;;32.82;68.53
37170;BME280;23062;13.952;100.608;2024-03-25T21:52:53;1010.88;;;32.82;68.46
37170;BME280;23062;13.952;100.608;2024-03-25T21:57:42;1010.91;;;32.72;69.22
37170;BME280;23062;13.952;100.608;2024-03-25T22:02:26;1010.97;;;32.69;69.38
37170;BME280;23062;13.952;100.608;2024-03-25T22:07:08;1010.89;;;31.90;73.24
37170;BME280;23062;13.952;100.608;2024-03-25T22:11:48;1011.01;;;31.82;73.63
37170;BME280;23062;13.952;100.608;2024-03-25T22:16:25;1011.06;;;31.77;74.00
37170;BME280;23062;13.952;100.608;2024-03-25T22:21:09;1011.05;;;31.86;74.27
37170;BME280;23062;13.952;100.608;2024-03-25T22:25:53;1011.10;;;31.83;73.73
37170;BME280;23062;13.952;100.608;2024-03-25T22:30:38;1011.14;;;31.77;73.72
37170;BME280;23062;13.952;100.608;2024-03-25T22:35:20;1011.26;;;31.82;73.76
37170;BME280;23062;13.952;100.608;2024-03-25T22:40:04;1011.30;;;32.20;72.34
37170;BME280;23062;13.952;100.608;2024-03-25T22:44:42;1011.28;;;32.21;72.80
37170;BME280;23062;13.952;100.608;2024-03-25T22:49:29;1011.36;;;32.18;72.76
37170;BME280;23062;13.952;100.608;2024-03-25T22:54:14;1011.44;;;32.42;71.48
37170;BME280;23062;13.952;100.608;2024-03-25T22:58:59;1011.44;;;32.49;70.89
37170;BME280;23062;13.952;100.608;2024-03-25T23:03:36;1011.51;;;32.50;70.69
37170;BME280;23062;13.952;100.608;2024-03-25T23:08:12;1011.51;;;32.52;70.45
37170;BME280;23062;13.952;100.608;2024-03-25T23:12:53;1011.59;;;32.54;70.54
37170;BME280;23062;13.952;100.608;2024-03-25T23:17:38;1011.70;;;32.51;70.67
37170;BME280;23062;13.952;100.608;2024-03-25T23:22:14;1011.79;;;32.54;70.49
37170;BME280;23062;13.952;100.608;2024-03-25T23:26:57;1011.84;;;32.50;70.56
37170;BME280;23062;13.952;100.608;2024-03-25T23:31:34;1011.90;;;32.54;70.54
37170;BME280;23062;13.952;100.608;2024-03-25T23:36:18;1011.92;;;32.54;70.52
37170;BME280;23062;13.952;100.608;2024-03-25T23:41:02;1012.01;;;32.54;70.49
37170;BME280;23062;13.952;100.608;2024-03-25T23:45:39;1012.01;;;32.57;70.44
37170;BME280;23062;13.952;100.608;2024-03-25T23:50:23;1012.12;;;32.45;71.10
37170;BME280;23062;13.952;100.608;2024-03-25T23:55:08;1012.13;;;32.54;70.92
37170;BME280;23062;13.952;100.608;2024-03-25T23:59:46;1012.22;;;32.53;71.17
